RYR4046 EPKK-LIRN
Flight info
| Callsign | RYR4046 |
|---|---|
| Flight time | 1h 34m |
| Altitude | 38000 |
| Route | BABKO DCT NIDOK DCT KOPRY DCT ZDA DCT XAMIT/N0442F390 DCT SUTOB DCT ESODU/N0430F330 DCT SUXUB DCT ERIKA |
| Aircraft | B38M/M-SADE3FGILRWY/SB1 |
Departure
| Time | 2026-05-04 10:52 |
|---|---|
| Airport | Kraków John Paul II International Airport (EPKK) |
Arrival
| Time | 2026-05-04 12:27 |
|---|---|
| Airport | Naples International Airport (LIRN) |
| Time | Latitude | Longitude | Altitude | Speed | Heading |
|---|---|---|---|---|---|
| 2026-05-04 10:41 | 50.07497 | 19.80210 | 802 ft | 0 kts | 168° |
| 2026-05-04 10:49 | 50.07477 | 19.80216 | 802 ft | 8 kts | 168° |
| 2026-05-04 10:49 | 50.07437 | 19.80293 | 802 ft | 11 kts | 86° |
| 2026-05-04 10:50 | 50.07485 | 19.80384 | 802 ft | 12 kts | 22° |
| 2026-05-04 10:51 | 50.07908 | 19.79443 | 802 ft | 100 kts | 257° |
| 2026-05-04 10:52 | 50.07714 | 19.78010 | 826 ft | 164 kts | 261° |
| 2026-05-04 10:52 | 50.07458 | 19.76224 | 1405 ft | 174 kts | 258° |
| 2026-05-04 10:52 | 50.07151 | 19.74372 | 2122 ft | 179 kts | 254° |
| 2026-05-04 10:54 | 49.98057 | 19.66281 | 8241 ft | 274 kts | 198° |
| 2026-05-04 10:54 | 49.96243 | 19.65323 | 9337 ft | 279 kts | 198° |
| 2026-05-04 10:56 | 49.81652 | 19.57629 | 14663 ft | 346 kts | 198° |
| 2026-05-04 10:56 | 49.79366 | 19.56432 | 15463 ft | 349 kts | 198° |
| 2026-05-04 10:56 | 49.77044 | 19.55216 | 16145 ft | 355 kts | 198° |
| 2026-05-04 10:57 | 49.74691 | 19.53987 | 16907 ft | 359 kts | 198° |
| 2026-05-04 10:57 | 49.72304 | 19.52740 | 17587 ft | 365 kts | 198° |
| 2026-05-04 10:57 | 49.69885 | 19.51479 | 18302 ft | 369 kts | 198° |
| 2026-05-04 10:57 | 49.67434 | 19.50203 | 18928 ft | 373 kts | 198° |
| 2026-05-04 10:58 | 49.64964 | 19.48917 | 19565 ft | 376 kts | 198° |
| 2026-05-04 10:58 | 49.62470 | 19.47621 | 20159 ft | 380 kts | 198° |
| 2026-05-04 10:58 | 49.60042 | 19.45967 | 20725 ft | 384 kts | 211° |
| 2026-05-04 10:58 | 49.57734 | 19.43869 | 21300 ft | 388 kts | 210° |
| 2026-05-04 10:59 | 49.55390 | 19.41784 | 21892 ft | 391 kts | 210° |
| 2026-05-04 10:59 | 49.53025 | 19.39679 | 22486 ft | 394 kts | 210° |
| 2026-05-04 10:59 | 49.50641 | 19.37558 | 23081 ft | 397 kts | 210° |
| 2026-05-04 10:59 | 49.48237 | 19.35421 | 23630 ft | 401 kts | 210° |
| 2026-05-04 11:00 | 49.45814 | 19.33269 | 24082 ft | 404 kts | 210° |
| 2026-05-04 11:01 | 49.28358 | 19.17843 | 27225 ft | 423 kts | 210° |
| 2026-05-04 11:02 | 49.25840 | 19.15628 | 27640 ft | 425 kts | 210° |
| 2026-05-04 11:02 | 49.23264 | 19.13365 | 28062 ft | 427 kts | 210° |
| 2026-05-04 11:05 | 48.85631 | 18.80907 | 32732 ft | 460 kts | 206° |
| 2026-05-04 11:06 | 48.82736 | 18.78793 | 33027 ft | 462 kts | 207° |
| 2026-05-04 11:06 | 48.79836 | 18.76649 | 33306 ft | 465 kts | 207° |
| 2026-05-04 11:06 | 48.76929 | 18.74491 | 33579 ft | 466 kts | 207° |
| 2026-05-04 11:06 | 48.74018 | 18.72328 | 33982 ft | 466 kts | 207° |
| 2026-05-04 11:08 | 48.53700 | 18.57302 | 36130 ft | 464 kts | 207° |
| 2026-05-04 11:10 | 48.33488 | 18.42489 | 37970 ft | 461 kts | 207° |
| 2026-05-04 11:12 | 48.13320 | 18.27837 | 38081 ft | 460 kts | 207° |
| 2026-05-04 11:12 | 48.10444 | 18.25758 | 38080 ft | 460 kts | 207° |
| 2026-05-04 11:12 | 48.04682 | 18.21601 | 38080 ft | 460 kts | 207° |
| 2026-05-04 11:13 | 47.98922 | 18.17456 | 38085 ft | 459 kts | 207° |
| 2026-05-04 11:13 | 47.93169 | 18.13326 | 38080 ft | 459 kts | 207° |
| 2026-05-04 11:16 | 47.65362 | 17.93507 | 38064 ft | 453 kts | 207° |
| 2026-05-04 11:16 | 47.59738 | 17.89527 | 38088 ft | 443 kts | 207° |
| 2026-05-04 11:17 | 47.54182 | 17.85604 | 38076 ft | 442 kts | 207° |
| 2026-05-04 11:19 | 47.31915 | 17.69976 | 38080 ft | 443 kts | 207° |
| 2026-05-04 11:19 | 47.26335 | 17.66083 | 38073 ft | 444 kts | 207° |
| 2026-05-04 11:20 | 47.20753 | 17.62198 | 38074 ft | 444 kts | 207° |
| 2026-05-04 11:20 | 47.15203 | 17.58344 | 38079 ft | 444 kts | 207° |
| 2026-05-04 11:22 | 46.92848 | 17.42909 | 38091 ft | 444 kts | 207° |
| 2026-05-04 11:23 | 46.87255 | 17.39070 | 38096 ft | 444 kts | 207° |
| 2026-05-04 11:25 | 46.67653 | 17.25684 | 38098 ft | 445 kts | 207° |
| 2026-05-04 11:25 | 46.62042 | 17.21873 | 38104 ft | 445 kts | 207° |
| 2026-05-04 11:27 | 46.36282 | 17.04481 | 38085 ft | 457 kts | 207° |
| 2026-05-04 11:28 | 46.30507 | 17.00605 | 38095 ft | 457 kts | 207° |
| 2026-05-04 11:28 | 46.24738 | 16.96730 | 38097 ft | 458 kts | 209° |
| 2026-05-04 11:29 | 46.19154 | 16.92334 | 38093 ft | 457 kts | 211° |
| 2026-05-04 11:29 | 46.13564 | 16.87987 | 38094 ft | 457 kts | 210° |
| 2026-05-04 11:33 | 45.74296 | 16.57842 | 38096 ft | 458 kts | 210° |
| 2026-05-04 11:33 | 45.68669 | 16.53562 | 38096 ft | 458 kts | 210° |
| 2026-05-04 11:34 | 45.63039 | 16.49290 | 38088 ft | 458 kts | 210° |
| 2026-05-04 11:34 | 45.57408 | 16.45026 | 38096 ft | 458 kts | 210° |
| 2026-05-04 11:35 | 45.51767 | 16.40765 | 38088 ft | 458 kts | 210° |
| 2026-05-04 11:35 | 45.46130 | 16.36517 | 38090 ft | 458 kts | 210° |
| 2026-05-04 11:36 | 45.40494 | 16.32279 | 38086 ft | 458 kts | 210° |
| 2026-05-04 11:36 | 45.34851 | 16.28045 | 38083 ft | 458 kts | 210° |
| 2026-05-04 11:37 | 45.29208 | 16.23822 | 38082 ft | 458 kts | 210° |
| 2026-05-04 11:37 | 45.23560 | 16.19603 | 38084 ft | 458 kts | 210° |
| 2026-05-04 11:38 | 45.17920 | 16.15401 | 38086 ft | 458 kts | 210° |
| 2026-05-04 11:38 | 45.12276 | 16.11205 | 38086 ft | 458 kts | 210° |
| 2026-05-04 11:39 | 45.06642 | 16.07025 | 38078 ft | 458 kts | 210° |
| 2026-05-04 11:41 | 44.86907 | 15.92459 | 38082 ft | 457 kts | 210° |
| 2026-05-04 11:41 | 44.81269 | 15.88318 | 38083 ft | 457 kts | 210° |
| 2026-05-04 11:42 | 44.75637 | 15.84191 | 38091 ft | 456 kts | 210° |
| 2026-05-04 11:42 | 44.70006 | 15.80074 | 38095 ft | 456 kts | 210° |
| 2026-05-04 11:43 | 44.64381 | 15.75971 | 38094 ft | 455 kts | 210° |
| 2026-05-04 11:43 | 44.58798 | 15.71907 | 38099 ft | 455 kts | 210° |
| 2026-05-04 11:44 | 44.53186 | 15.67831 | 38110 ft | 454 kts | 210° |
| 2026-05-04 11:44 | 44.47578 | 15.63766 | 38112 ft | 454 kts | 210° |
| 2026-05-04 11:45 | 44.41971 | 15.59711 | 38118 ft | 453 kts | 210° |
| 2026-05-04 11:45 | 44.36374 | 15.55672 | 38121 ft | 453 kts | 210° |
| 2026-05-04 11:46 | 44.30772 | 15.51639 | 38144 ft | 452 kts | 210° |
| 2026-05-04 11:46 | 44.25179 | 15.47618 | 38143 ft | 452 kts | 210° |
| 2026-05-04 11:47 | 44.19590 | 15.43610 | 38157 ft | 451 kts | 210° |
| 2026-05-04 11:47 | 44.14008 | 15.39614 | 38154 ft | 451 kts | 210° |
| 2026-05-04 11:48 | 44.08440 | 15.35598 | 38154 ft | 450 kts | 211° |
| 2026-05-04 11:48 | 44.02936 | 15.31563 | 38158 ft | 450 kts | 211° |
| 2026-05-04 11:49 | 43.97396 | 15.27515 | 38152 ft | 450 kts | 211° |
| 2026-05-04 11:49 | 43.91861 | 15.23479 | 38149 ft | 449 kts | 211° |
| 2026-05-04 11:50 | 43.86329 | 15.19454 | 38145 ft | 449 kts | 211° |
| 2026-05-04 11:50 | 43.80801 | 15.15441 | 38136 ft | 448 kts | 211° |
| 2026-05-04 11:51 | 43.75278 | 15.11439 | 38138 ft | 448 kts | 211° |
| 2026-05-04 11:51 | 43.69761 | 15.07450 | 38131 ft | 447 kts | 211° |
| 2026-05-04 11:52 | 43.64246 | 15.03471 | 38132 ft | 447 kts | 211° |
| 2026-05-04 11:52 | 43.58730 | 14.99500 | 38132 ft | 447 kts | 210° |
| 2026-05-04 11:53 | 43.53220 | 14.95541 | 38134 ft | 446 kts | 210° |
| 2026-05-04 11:53 | 43.47715 | 14.91594 | 38124 ft | 446 kts | 210° |
| 2026-05-04 11:55 | 43.25425 | 14.76687 | 38133 ft | 447 kts | 205° |
| 2026-05-04 11:56 | 43.19679 | 14.73587 | 38121 ft | 447 kts | 205° |
| 2026-05-04 11:56 | 43.13887 | 14.70474 | 38123 ft | 447 kts | 204° |
| 2026-05-04 11:57 | 43.08088 | 14.67365 | 38124 ft | 447 kts | 205° |
| 2026-05-04 11:57 | 43.02302 | 14.64268 | 38127 ft | 447 kts | 205° |
| 2026-05-04 11:58 | 42.96507 | 14.61174 | 38125 ft | 447 kts | 205° |
| 2026-05-04 11:58 | 42.90710 | 14.58084 | 38112 ft | 447 kts | 205° |
| 2026-05-04 11:59 | 42.84914 | 14.55001 | 38112 ft | 447 kts | 205° |
| 2026-05-04 11:59 | 42.79115 | 14.51923 | 38113 ft | 447 kts | 205° |
| 2026-05-04 12:00 | 42.73324 | 14.48796 | 38116 ft | 447 kts | 205° |
| 2026-05-04 12:00 | 42.67540 | 14.45664 | 38113 ft | 448 kts | 205° |
| 2026-05-04 12:01 | 42.61747 | 14.42536 | 38114 ft | 448 kts | 205° |
| 2026-05-04 12:02 | 42.41316 | 14.31894 | 38133 ft | 452 kts | 202° |
| 2026-05-04 12:03 | 42.35342 | 14.29206 | 38125 ft | 452 kts | 202° |
| 2026-05-04 12:03 | 42.32364 | 14.27858 | 37926 ft | 450 kts | 202° |
| 2026-05-04 12:03 | 42.29408 | 14.26520 | 37473 ft | 444 kts | 202° |
| 2026-05-04 12:04 | 42.26496 | 14.25201 | 36998 ft | 439 kts | 202° |
| 2026-05-04 12:04 | 42.23628 | 14.23904 | 36343 ft | 440 kts | 202° |
| 2026-05-04 12:04 | 42.20711 | 14.22587 | 35627 ft | 443 kts | 201° |
| 2026-05-04 12:04 | 42.17814 | 14.21279 | 34959 ft | 446 kts | 201° |
| 2026-05-04 12:05 | 42.14862 | 14.19948 | 34284 ft | 447 kts | 201° |
| 2026-05-04 12:05 | 42.11909 | 14.18617 | 33499 ft | 449 kts | 201° |
| 2026-05-04 12:05 | 42.08943 | 14.17282 | 32708 ft | 450 kts | 201° |
| 2026-05-04 12:05 | 42.05978 | 14.15948 | 32006 ft | 449 kts | 200° |
| 2026-05-04 12:06 | 42.03010 | 14.14615 | 31233 ft | 450 kts | 201° |
| 2026-05-04 12:06 | 42.00033 | 14.13279 | 30455 ft | 451 kts | 201° |
| 2026-05-04 12:06 | 41.97054 | 14.11944 | 29535 ft | 454 kts | 201° |
| 2026-05-04 12:06 | 41.94048 | 14.10597 | 28626 ft | 455 kts | 201° |
| 2026-05-04 12:07 | 41.92060 | 14.09708 | 28057 ft | 456 kts | 201° |
| 2026-05-04 12:07 | 41.89077 | 14.08382 | 27152 ft | 457 kts | 199° |
| 2026-05-04 12:07 | 41.85876 | 14.07539 | 25883 ft | 470 kts | 189° |
| 2026-05-04 12:07 | 41.82624 | 14.06938 | 24901 ft | 472 kts | 191° |
| 2026-05-04 12:08 | 41.79368 | 14.06318 | 23918 ft | 475 kts | 190° |
| 2026-05-04 12:08 | 41.76096 | 14.05702 | 23135 ft | 471 kts | 190° |
| 2026-05-04 12:08 | 41.72893 | 14.05101 | 22664 ft | 458 kts | 190° |
| 2026-05-04 12:08 | 41.69706 | 14.04554 | 21170 ft | 467 kts | 185° |
| 2026-05-04 12:09 | 41.66512 | 14.04822 | 20186 ft | 454 kts | 171° |
| 2026-05-04 12:09 | 41.63525 | 14.05944 | 19392 ft | 438 kts | 160° |
| 2026-05-04 12:09 | 41.60858 | 14.07542 | 19613 ft | 395 kts | 154° |
| 2026-05-04 12:09 | 41.58635 | 14.09507 | 19375 ft | 376 kts | 141° |
| 2026-05-04 12:10 | 41.56721 | 14.11799 | 18963 ft | 363 kts | 138° |
| 2026-05-04 12:10 | 41.54950 | 14.14091 | 18685 ft | 346 kts | 137° |
| 2026-05-04 12:10 | 41.53301 | 14.16333 | 18460 ft | 334 kts | 136° |
| 2026-05-04 12:10 | 41.51716 | 14.18553 | 18210 ft | 327 kts | 135° |
| 2026-05-04 12:11 | 41.50175 | 14.20738 | 18011 ft | 318 kts | 135° |
| 2026-05-04 12:11 | 41.48685 | 14.22869 | 17818 ft | 310 kts | 135° |
| 2026-05-04 12:11 | 41.47239 | 14.24948 | 17616 ft | 302 kts | 135° |
| 2026-05-04 12:11 | 41.45822 | 14.26992 | 17351 ft | 298 kts | 135° |
| 2026-05-04 12:12 | 41.44433 | 14.28997 | 17165 ft | 290 kts | 135° |
| 2026-05-04 12:12 | 41.43090 | 14.30936 | 17028 ft | 280 kts | 134° |
| 2026-05-04 12:12 | 41.41691 | 14.32712 | 16731 ft | 278 kts | 141° |
| 2026-05-04 12:12 | 41.40220 | 14.34414 | 16462 ft | 282 kts | 141° |
| 2026-05-04 12:13 | 41.38742 | 14.36143 | 16189 ft | 283 kts | 140° |
| 2026-05-04 12:14 | 41.29430 | 14.49744 | 13566 ft | 296 kts | 123° |
| 2026-05-04 12:15 | 41.28297 | 14.52028 | 13090 ft | 295 kts | 124° |
| 2026-05-04 12:15 | 41.27158 | 14.54283 | 12640 ft | 293 kts | 124° |
| 2026-05-04 12:15 | 41.26017 | 14.56515 | 12191 ft | 291 kts | 124° |
| 2026-05-04 12:15 | 41.24878 | 14.58727 | 11764 ft | 289 kts | 125° |
| 2026-05-04 12:16 | 41.23741 | 14.60922 | 11342 ft | 287 kts | 125° |
| 2026-05-04 12:16 | 41.22610 | 14.63102 | 10933 ft | 286 kts | 125° |
| 2026-05-04 12:16 | 41.21487 | 14.65263 | 10535 ft | 284 kts | 124° |
| 2026-05-04 12:16 | 41.20367 | 14.67416 | 10161 ft | 282 kts | 124° |
| 2026-05-04 12:17 | 41.19255 | 14.69552 | 9727 ft | 281 kts | 124° |
| 2026-05-04 12:17 | 41.18156 | 14.71661 | 9364 ft | 272 kts | 124° |
| 2026-05-04 12:17 | 41.17102 | 14.73682 | 9062 ft | 260 kts | 124° |
| 2026-05-04 12:17 | 41.16053 | 14.75572 | 8777 ft | 248 kts | 135° |
| 2026-05-04 12:18 | 41.14652 | 14.76776 | 8465 ft | 237 kts | 162° |
| 2026-05-04 12:18 | 41.13060 | 14.76998 | 8171 ft | 227 kts | 188° |
| 2026-05-04 12:18 | 41.11595 | 14.76323 | 7903 ft | 224 kts | 212° |
| 2026-05-04 12:18 | 41.10450 | 14.74945 | 7649 ft | 223 kts | 232° |
| 2026-05-04 12:19 | 41.09539 | 14.73279 | 7547 ft | 224 kts | 235° |
| 2026-05-04 12:19 | 41.08661 | 14.71577 | 7400 ft | 224 kts | 236° |
| 2026-05-04 12:19 | 41.07813 | 14.69852 | 7256 ft | 223 kts | 237° |
| 2026-05-04 12:19 | 41.06981 | 14.68119 | 7116 ft | 223 kts | 237° |
| 2026-05-04 12:20 | 41.06155 | 14.66386 | 6986 ft | 223 kts | 238° |
| 2026-05-04 12:20 | 41.05333 | 14.64650 | 6714 ft | 221 kts | 238° |
| 2026-05-04 12:20 | 41.04547 | 14.62982 | 6432 ft | 208 kts | 238° |
| 2026-05-04 12:20 | 41.03789 | 14.61375 | 6135 ft | 204 kts | 238° |
| 2026-05-04 12:21 | 41.03042 | 14.59786 | 5862 ft | 202 kts | 238° |
| 2026-05-04 12:21 | 41.02299 | 14.58206 | 5571 ft | 201 kts | 238° |
| 2026-05-04 12:21 | 41.01559 | 14.56628 | 5288 ft | 202 kts | 238° |
| 2026-05-04 12:21 | 41.00819 | 14.55049 | 5011 ft | 201 kts | 238° |
| 2026-05-04 12:22 | 41.00083 | 14.53486 | 4729 ft | 199 kts | 238° |
| 2026-05-04 12:22 | 40.99354 | 14.51933 | 4446 ft | 198 kts | 238° |
| 2026-05-04 12:22 | 40.98628 | 14.50399 | 4179 ft | 196 kts | 238° |
| 2026-05-04 12:22 | 40.97918 | 14.48879 | 3825 ft | 193 kts | 239° |
| 2026-05-04 12:23 | 40.97211 | 14.47372 | 3550 ft | 192 kts | 239° |
| 2026-05-04 12:23 | 40.96518 | 14.45891 | 3286 ft | 191 kts | 239° |
| 2026-05-04 12:23 | 40.95821 | 14.44406 | 3021 ft | 190 kts | 239° |
| 2026-05-04 12:23 | 40.95129 | 14.42958 | 2820 ft | 182 kts | 238° |
| 2026-05-04 12:24 | 40.94472 | 14.41580 | 2546 ft | 167 kts | 239° |
| 2026-05-04 12:24 | 40.93873 | 14.40297 | 2277 ft | 158 kts | 240° |
| 2026-05-04 12:24 | 40.93329 | 14.39116 | 2044 ft | 146 kts | 240° |
| 2026-05-04 12:24 | 40.92800 | 14.37946 | 1826 ft | 148 kts | 240° |
| 2026-05-04 12:25 | 40.92278 | 14.36791 | 1513 ft | 145 kts | 239° |
| 2026-05-04 12:25 | 40.91734 | 14.35661 | 1317 ft | 149 kts | 238° |
| 2026-05-04 12:25 | 40.91182 | 14.34496 | 1100 ft | 147 kts | 237° |
| 2026-05-04 12:25 | 40.90657 | 14.33361 | 835 ft | 146 kts | 236° |
| 2026-05-04 12:26 | 40.90124 | 14.32263 | 654 ft | 141 kts | 234° |
| 2026-05-04 12:26 | 40.89576 | 14.31138 | 449 ft | 145 kts | 235° |
| 2026-05-04 12:26 | 40.89055 | 14.30024 | 255 ft | 137 kts | 234° |
| 2026-05-04 12:26 | 40.88633 | 14.29139 | 268 ft | 80 kts | 238° |
| 2026-05-04 12:27 | 40.88461 | 14.28777 | 277 ft | 15 kts | 233° |
| 2026-05-04 12:27 | 40.88387 | 14.28787 | 278 ft | 13 kts | 148° |
| 2026-05-04 12:27 | 40.88309 | 14.28851 | 278 ft | 11 kts | 147° |
| 2026-05-04 12:27 | 40.88261 | 14.28890 | 278 ft | 9 kts | 150° |
| 2026-05-04 12:28 | 40.88200 | 14.28873 | 284 ft | 10 kts | 223° |
| 2026-05-04 12:28 | 40.88157 | 14.28800 | 281 ft | 10 kts | 232° |
| 2026-05-04 12:28 | 40.88111 | 14.28720 | 283 ft | 12 kts | 233° |
| 2026-05-04 12:28 | 40.88058 | 14.28626 | 285 ft | 14 kts | 233° |
| 2026-05-04 12:29 | 40.88001 | 14.28528 | 290 ft | 14 kts | 231° |
| 2026-05-04 12:29 | 40.87937 | 14.28426 | 293 ft | 15 kts | 257° |
| 2026-05-04 12:29 | 40.87951 | 14.28275 | 292 ft | 15 kts | 282° |
| 2026-05-04 12:29 | 40.87961 | 14.28139 | 295 ft | 16 kts | 262° |
| 2026-05-04 12:30 | 40.87937 | 14.28085 | 298 ft | 3 kts | 229° |
| 2026-05-04 12:30 | 40.87917 | 14.28084 | 300 ft | 5 kts | 162° |
| 2026-05-04 12:30 | 40.87878 | 14.28120 | 299 ft | 6 kts | 140° |
| 2026-05-04 12:30 | 40.87870 | 14.28129 | 296 ft | 0 kts | 140° |